Time;durP1;ratioP1;P1;durP2;ratioP2;P2;SDS_P1;SDS_P2;PMS_P1;PMS_P2;Temp;Humidity;BMP_temperature;BMP_pressure;BME280_temperature;BME280_humidity;BME280_pressure;Samples;Min_cycle;Max_cycle;Signal;HPM_P1;HPM_P2
2022/03/17 00:01:07;;;;;;;42.15;27.58;;;;;;;10.31;74.07;101845.31;5057249;28;20020;-68
2022/03/17 00:03:32;;;;;;;43.03;27.63;;;;;;;10.31;73.73;101845.31;5047984;28;20642;-68
2022/03/17 00:05:57;;;;;;;42.30;27.20;;;;;;;10.36;73.24;101837.31;5065995;28;20229;-68
2022/03/17 00:08:23;;;;;;;43.10;27.80;;;;;;;10.31;74.17;101848.06;5059678;28;20025;-68
2022/03/17 00:10:49;;;;;;;44.22;27.80;;;;;;;10.37;73.66;101855.47;5045674;28;20041;-69
2022/03/17 00:13:14;;;;;;;43.17;27.60;;;;;;;10.34;73.38;101853.13;5045927;28;20093;-68
2022/03/17 00:15:40;;;;;;;45.67;28.10;;;;;;;10.32;73.89;101855.22;5047027;28;20134;-68
2022/03/17 00:18:05;;;;;;;47.65;29.30;;;;;;;10.32;73.56;101845.09;5046622;28;20033;-68
2022/03/17 00:20:31;;;;;;;44.75;26.58;;;;;;;10.29;74.25;101855.63;5045412;28;20036;-68
2022/03/17 00:22:56;;;;;;;44.95;28.52;;;;;;;10.31;73.50;101834.31;5045917;28;20029;-68
2022/03/17 00:25:21;;;;;;;45.25;28.50;;;;;;;10.28;74.21;101837.47;5048775;28;20091;-69
2022/03/17 00:27:46;;;;;;;44.83;28.98;;;;;;;10.29;73.99;101840.03;5044087;28;20024;-68
2022/03/17 00:30:12;;;;;;;47.05;29.48;;;;;;;10.28;74.13;101845.69;5027529;28;20034;-68
2022/03/17 00:32:38;;;;;;;43.47;28.58;;;;;;;10.23;74.08;101846.28;5045811;28;20132;-68
2022/03/17 00:37:48;;;;;;;45.47;28.98;;;;;;;10.18;74.42;101836.97;5045784;28;20044;-68
2022/03/17 00:40:14;;;;;;;46.78;29.13;;;;;;;10.15;74.89;101846.47;5045216;28;20036;-68
2022/03/17 00:42:39;;;;;;;45.60;28.25;;;;;;;10.13;74.57;101840.31;5045158;28;20029;-68
2022/03/17 00:45:05;;;;;;;49.58;30.83;;;;;;;10.12;75.01;101847.72;5045764;28;20035;-68
2022/03/17 00:47:30;;;;;;;45.72;27.80;;;;;;;10.06;75.05;101848.53;5052862;28;20390;-68
2022/03/17 00:49:56;;;;;;;45.95;28.25;;;;;;;10.03;75.05;101851.66;5065211;28;20082;-68
2022/03/17 00:52:21;;;;;;;45.20;28.95;;;;;;;9.99;75.43;101858.63;5065060;28;20024;-68
2022/03/17 00:54:46;;;;;;;46.85;29.23;;;;;;;9.98;75.46;101858.81;5064254;28;20485;-68
2022/03/17 00:57:12;;;;;;;45.20;29.25;;;;;;;9.96;75.70;101864.50;5052517;28;20043;-68
2022/03/17 00:59:38;;;;;;;50.80;29.77;;;;;;;9.92;76.26;101857.72;5062029;28;20029;-68
2022/03/17 01:02:05;;;;;;;47.00;29.30;;;;;;;9.95;76.17;101859.25;5047399;28;20045;-68
2022/03/17 01:04:30;;;;;;;48.28;28.77;;;;;;;10.00;75.87;101856.72;5062272;28;20060;-68
2022/03/17 01:06:55;;;;;;;44.28;27.40;;;;;;;10.00;76.34;101854.84;5049234;28;20072;-68
2022/03/17 01:09:21;;;;;;;49.17;29.23;;;;;;;10.03;75.97;101857.16;5060919;28;20025;-68
2022/03/17 01:11:46;;;;;;;41.03;28.45;;;;;;;10.06;76.01;101856.75;5047259;28;20387;-68
2022/03/17 01:14:13;;;;;;;48.35;29.73;;;;;;;10.05;75.87;101859.72;5063121;28;20107;-68
2022/03/17 01:16:42;;;;;;;40.95;28.20;;;;;;;10.05;75.85;101856.97;5059096;28;20037;-68
2022/03/17 01:19:07;;;;;;;45.95;28.88;;;;;;;10.07;76.25;101863.09;5044130;28;20017;-68
2022/03/17 01:21:32;;;;;;;47.95;28.83;;;;;;;10.06;76.56;101856.75;5044335;28;20067;-68
2022/03/17 01:23:58;;;;;;;45.75;28.17;;;;;;;10.10;76.63;101851.72;5044150;28;20239;-68
2022/03/17 01:26:23;;;;;;;47.35;29.10;;;;;;;10.12;76.49;101853.19;5060205;28;20824;-70
2022/03/17 01:28:48;;;;;;;49.00;27.98;;;;;;;10.13;76.16;101846.66;5062947;28;20025;-68
2022/03/17 01:31:14;;;;;;;44.28;26.88;;;;;;;10.12;76.57;101842.22;5063231;28;20027;-68
2022/03/17 01:33:39;;;;;;;47.78;29.63;;;;;;;10.18;76.19;101836.97;5054578;28;20029;-67
2022/03/17 01:36:04;;;;;;;42.85;27.33;;;;;;;10.21;76.09;101847.56;5054107;28;20048;-68
2022/03/17 01:38:30;;;;;;;42.47;27.60;;;;;;;10.19;76.46;101864.25;5062437;28;20021;-67
2022/03/17 01:40:55;;;;;;;44.72;28.13;;;;;;;10.26;76.34;101856.91;5063831;28;20059;-68
2022/03/17 01:43:20;;;;;;;44.75;27.88;;;;;;;10.26;76.52;101856.06;5064084;28;20070;-69
2022/03/17 01:45:46;;;;;;;46.45;28.25;;;;;;;10.25;76.65;101852.47;5064095;28;20388;-68
2022/03/17 01:48:11;;;;;;;48.67;29.02;;;;;;;10.25;76.73;101838.75;5063006;28;20021;-68
2022/03/17 01:50:36;;;;;;;48.13;28.63;;;;;;;10.23;77.01;101846.28;5062996;28;20020;-67
2022/03/17 01:53:02;;;;;;;45.72;29.58;;;;;;;10.24;76.79;101858.13;5064073;28;20611;-68
2022/03/17 01:55:27;;;;;;;44.78;29.02;;;;;;;10.24;76.98;101858.13;5063095;28;20139;-68
2022/03/17 01:57:53;;;;;;;45.15;28.13;;;;;;;10.26;77.76;101850.56;5063918;28;20032;-68
2022/03/17 02:00:19;;;;;;;49.30;28.25;;;;;;;10.26;77.41;101867.03;5063548;28;20120;-68
2022/03/17 02:02:47;;;;;;;44.85;28.50;;;;;;;10.27;78.17;101861.34;5045777;28;20041;-68
2022/03/17 02:05:13;;;;;;;45.58;27.63;;;;;;;10.32;77.81;101847.84;5044017;28;20391;-68
2022/03/17 02:08:00;;;;;;;46.70;30.15;;;;;;;10.30;78.55;101847.22;5060273;28;20474;-67
2022/03/17 02:10:25;;;;;;;47.95;29.15;;;;;;;10.33;78.75;101849.53;5051766;28;20033;-68
2022/03/17 02:13:09;;;;;;;43.80;27.90;;;;;;;10.37;79.23;101850.81;5063667;28;20066;-68
2022/03/17 02:15:35;;;;;;;46.33;28.88;;;;;;;10.44;79.48;101850.00;5064395;28;20074;-68
2022/03/17 02:18:02;;;;;;;49.03;30.42;;;;;;;10.43;79.75;101856.53;5048100;28;20384;-68
2022/03/17 02:20:28;;;;;;;49.10;29.27;;;;;;;10.45;79.22;101860.78;5031186;28;20095;-68
2022/03/17 02:25:33;;;;;;;49.33;29.75;;;;;;;10.47;79.90;101864.16;5043549;28;20025;-68
2022/03/17 02:25:41;;;;;;;44.95;29.83;;;;;;;10.50;79.34;101857.44;5044477;28;20040;-68
2022/03/17 02:28:07;;;;;;;46.55;29.25;;;;;;;10.51;79.72;101861.88;5042319;28;20021;-68
2022/03/17 02:30:35;;;;;;;48.63;29.30;;;;;;;10.51;79.94;101867.38;5043268;28;20075;-68
2022/03/17 02:33:06;;;;;;;48.72;29.67;;;;;;;10.51;79.97;101859.13;5042469;28;20028;-68
2022/03/17 02:35:33;;;;;;;47.72;29.10;;;;;;;10.49;80.06;101866.69;5051630;28;20111;-68
2022/03/17 02:38:01;;;;;;;45.80;29.85;;;;;;;10.49;79.83;101872.19;5063056;28;20037;-68
2022/03/17 02:40:27;;;;;;;45.15;27.85;;;;;;;10.51;79.94;101872.84;5042772;28;20036;-68
2022/03/17 02:42:53;;;;;;;48.22;28.98;;;;;;;10.47;79.88;101868.81;5059925;28;20028;-68
2022/03/17 02:45:18;;;;;;;51.15;29.52;;;;;;;10.46;80.59;101884.44;5062668;28;20104;-68
2022/03/17 02:47:44;;;;;;;48.83;29.67;;;;;;;10.46;80.33;101884.44;5047677;28;20502;-68
2022/03/17 02:50:10;;;;;;;47.60;30.38;;;;;;;10.46;80.65;101892.69;5044120;28;20025;-67
2022/03/17 02:52:36;;;;;;;47.72;28.73;;;;;;;10.48;80.69;101896.06;5043137;28;20394;-68
2022/03/17 02:55:02;;;;;;;50.17;30.35;;;;;;;10.45;81.53;101896.50;5042998;28;20502;-68
2022/03/17 02:57:27;;;;;;;47.40;29.25;;;;;;;10.46;81.53;101903.69;5040989;28;20104;-68
2022/03/17 02:59:52;;;;;;;52.47;30.35;;;;;;;10.50;82.22;101906.88;5044354;28;20085;-68
2022/03/17 03:02:18;;;;;;;52.88;31.25;;;;;;;10.46;83.21;101911.06;5041300;28;20041;-68
2022/03/17 03:04:44;;;;;;;55.25;32.17;;;;;;;10.46;84.20;101920.16;5062202;28;20036;-68
2022/03/17 03:07:09;;;;;;;56.65;33.95;;;;;;;10.48;85.42;101909.81;5053794;28;20052;-65
2022/03/17 03:09:34;;;;;;;60.60;35.38;;;;;;;10.43;86.43;101925.19;5043083;28;20170;-68
2022/03/17 03:12:00;;;;;;;55.03;34.05;;;;;;;10.36;88.04;101931.50;5043715;28;20020;-68
2022/03/17 03:14:27;;;;;;;52.97;28.45;;;;;;;10.34;89.41;101925.38;5043022;28;20463;-68
2022/03/17 03:16:52;;;;;;;46.78;28.67;;;;;;;10.29;91.48;101941.63;5061594;28;20024;-68
2022/03/17 03:19:17;;;;;;;47.35;29.88;;;;;;;10.17;92.45;101959.66;5062628;28;20396;-68
2022/03/17 03:21:43;;;;;;;42.58;27.40;;;;;;;10.06;93.58;101954.72;5054359;28;20425;-68
2022/03/17 03:24:09;;;;;;;33.92;22.98;;;;;;;9.97;93.75;101964.16;5042501;28;20021;-68
2022/03/17 03:26:35;;;;;;;34.15;23.08;;;;;;;9.90;94.17;101971.50;5059494;28;20418;-68
2022/03/17 03:29:00;;;;;;;33.45;22.77;;;;;;;9.83;94.53;101985.16;5044117;28;20062;-68
2022/03/17 03:31:25;;;;;;;36.33;21.92;;;;;;;9.78;95.36;101985.75;5062508;28;20039;-68
2022/03/17 03:33:50;;;;;;;31.38;20.60;;;;;;;9.73;96.26;101990.13;5061550;28;20113;-68
2022/03/17 03:39:13;;;;;;;25.77;17.95;;;;;;;9.52;94.38;102005.53;5039177;28;20094;-68
2022/03/17 03:41:38;;;;;;;26.75;19.05;;;;;;;9.42;94.28;102013.22;5058056;28;20021;-68
2022/03/17 03:44:04;;;;;;;25.95;18.55;;;;;;;9.34;94.99;102016.13;5039653;28;20017;-68
2022/03/17 03:46:29;;;;;;;30.38;22.30;;;;;;;9.34;94.91;102025.19;5020907;28;20120;-68
2022/03/17 03:48:54;;;;;;;29.33;21.67;;;;;;;9.25;94.95;102034.56;5022530;28;20038;-68
2022/03/17 03:51:19;;;;;;;32.72;23.10;;;;;;;9.22;95.04;102045.91;5041496;28;20064;-68
2022/03/17 03:56:29;;;;;;;37.88;26.67;;;;;;;9.12;95.25;102056.31;5041959;28;20479;-67
2022/03/17 03:58:55;;;;;;;38.92;27.48;;;;;;;9.02;95.38;102067.63;5042446;28;20077;-67
2022/03/17 04:01:20;;;;;;;38.58;26.73;;;;;;;8.96;95.33;102073.81;5041278;28;20068;-68
2022/03/17 04:03:45;;;;;;;36.47;25.27;;;;;;;8.94;94.74;102084.13;5041650;28;20029;-67
2022/03/17 04:06:10;;;;;;;40.25;26.77;;;;;;;8.86;95.81;102094.34;5050234;28;20028;-67
2022/03/17 04:08:36;;;;;;;38.30;26.98;;;;;;;8.82;95.19;102100.22;5062171;28;20437;-67
2022/03/17 04:11:01;;;;;;;38.83;26.25;;;;;;;8.78;95.63;102107.09;5061513;28;20025;-68
2022/03/17 04:13:27;;;;;;;43.05;26.88;;;;;;;8.73;95.50;102115.03;5061731;28;20024;-68
2022/03/17 04:15:52;;;;;;;47.38;29.30;;;;;;;8.71;94.94;102111.59;5061767;28;20443;-67
2022/03/17 04:18:17;;;;;;;48.63;30.40;;;;;;;8.68;95.13;102119.38;5061314;28;20032;-67
2022/03/17 04:20:42;;;;;;;52.92;31.00;;;;;;;8.62;94.95;102126.44;5061886;28;20082;-67
2022/03/17 04:23:08;;;;;;;45.28;30.25;;;;;;;8.57;95.13;102137.97;5061692;28;20024;-68
2022/03/17 04:25:33;;;;;;;46.03;28.83;;;;;;;8.54;94.68;102145.69;5052194;28;20610;-67
2022/03/17 04:27:58;;;;;;;42.45;28.63;;;;;;;8.50;95.03;102147.09;5042558;28;20077;-67
2022/03/17 04:30:24;;;;;;;44.55;29.17;;;;;;;8.46;95.98;102164.91;5043780;28;20039;-67
2022/03/17 04:32:49;;;;;;;47.63;29.00;;;;;;;8.44;95.69;102167.84;5044431;28;20306;-67
2022/03/17 04:35:14;;;;;;;45.85;30.02;;;;;;;8.41;96.41;102178.31;5045476;28;20017;-67
2022/03/17 04:37:40;;;;;;;48.60;28.95;;;;;;;8.37;96.46;102183.31;5045770;28;20383;-67
2022/03/17 04:40:05;;;;;;;46.78;29.88;;;;;;;8.35;97.19;102187.22;5046155;28;20032;-68
2022/03/17 04:42:31;;;;;;;47.47;29.17;;;;;;;8.33;97.71;102193.75;5044922;28;20052;-67
2022/03/17 04:44:56;;;;;;;48.55;30.50;;;;;;;8.33;98.58;102210.16;5045697;28;20391;-67
2022/03/17 04:47:21;;;;;;;47.80;30.25;;;;;;;8.31;98.85;102216.84;5058373;28;20032;-67
2022/03/17 04:49:47;;;;;;;45.58;29.90;;;;;;;8.27;99.23;102213.63;5038176;28;20040;-68
2022/03/17 04:54:57;;;;;;;51.58;31.35;;;;;;;8.16;96.52;102225.00;5058814;28;20044;-68
2022/03/17 04:57:25;;;;;;;51.00;32.05;;;;;;;8.08;96.31;102233.25;5065071;28;20515;-68
2022/03/17 04:59:51;;;;;;;49.40;30.60;;;;;;;8.06;96.24;102244.41;5065110;28;20077;-67
2022/03/17 05:02:16;;;;;;;48.72;31.48;;;;;;;8.03;96.05;102252.09;5045930;28;20124;-67
2022/03/17 05:04:41;;;;;;;51.45;32.20;;;;;;;8.01;96.26;102249.56;5044727;28;20029;-67
2022/03/17 05:07:06;;;;;;;48.58;30.33;;;;;;;8.00;96.69;102268.88;5050216;28;20031;-67
2022/03/17 05:09:32;;;;;;;35.97;23.60;;;;;;;7.95;94.67;102277.59;5044489;28;20020;-67
2022/03/17 05:11:57;;;;;;;31.08;17.00;;;;;;;7.86;93.34;102291.53;5062586;28;20041;-68
2022/03/17 05:14:22;;;;;;;29.63;15.30;;;;;;;7.81;93.34;102297.53;5064678;28;20032;-67
2022/03/17 05:16:47;;;;;;;24.42;12.63;;;;;;;7.73;93.01;102312.06;5053962;28;20415;-67
2022/03/17 05:19:13;;;;;;;27.13;12.75;;;;;;;7.69;92.85;102316.19;5057014;28;20048;-68
2022/03/17 05:21:38;;;;;;;23.05;11.23;;;;;;;7.69;92.00;102321.66;5062738;28;20033;-68
2022/03/17 05:24:04;;;;;;;20.75;9.90;;;;;;;7.62;91.49;102334.31;5065435;28;20128;-68
2022/03/17 05:26:29;;;;;;;20.33;10.73;;;;;;;7.61;91.78;102335.34;5060735;28;20036;-67
2022/03/17 05:28:55;;;;;;;27.13;9.95;;;;;;;7.59;90.44;102344.75;5064711;28;20393;-68
2022/03/17 05:31:20;;;;;;;22.02;8.88;;;;;;;7.53;90.60;102355.34;5050775;28;20088;-67
2022/03/17 05:33:45;;;;;;;16.25;7.63;;;;;;;7.52;89.65;102352.81;5054004;28;20038;-67
2022/03/17 05:36:10;;;;;;;24.38;8.25;;;;;;;7.47;89.69;102363.41;5063178;28;20067;-67
2022/03/17 05:38:36;;;;;;;17.70;8.45;;;;;;;7.46;89.78;102375.38;5051917;28;20029;-66
2022/03/17 05:41:01;;;;;;;18.23;8.40;;;;;;;7.43;89.06;102375.72;5056144;28;20025;-67
2022/03/17 05:43:26;;;;;;;16.02;8.00;;;;;;;7.43;89.78;102389.38;5064300;28;20086;-68
2022/03/17 05:45:51;;;;;;;20.00;6.95;;;;;;;7.41;89.59;102391.44;5063708;28;20013;-66
2022/03/17 05:48:17;;;;;;;22.20;7.50;;;;;;;7.41;88.70;102395.03;5060643;28;20025;-66
2022/03/17 05:50:45;;;;;;;19.35;7.07;;;;;;;7.47;88.62;102401.69;5062992;28;20258;-66
2022/03/17 05:53:10;;;;;;;19.85;7.43;;;;;;;7.41;89.06;102411.41;5063571;28;20024;-65
2022/03/17 05:55:37;;;;;;;18.15;6.13;;;;;;;7.41;88.46;102426.97;5058543;28;20036;-66
2022/03/17 05:58:03;;;;;;;20.02;6.47;;;;;;;7.39;88.68;102431.75;5042549;28;20464;-66
2022/03/17 06:00:30;;;;;;;19.98;5.88;;;;;;;7.38;88.53;102432.78;5045410;28;20087;-66
2022/03/17 06:02:57;;;;;;;20.73;6.60;;;;;;;7.37;88.83;102444.72;5062475;28;20048;-66
2022/03/17 06:05:23;;;;;;;19.90;6.38;;;;;;;7.35;88.67;102449.50;5063519;28;20025;-66
2022/03/17 06:07:50;;;;;;;14.77;5.35;;;;;;;7.33;88.67;102446.94;5047369;28;20036;-66
2022/03/17 06:10:18;;;;;;;12.27;5.07;;;;;;;7.31;88.41;102462.66;5043656;28;20043;-66
2022/03/17 06:12:44;;;;;;;15.27;5.20;;;;;;;7.32;88.55;102463.53;5042669;28;20710;-67
2022/03/17 06:15:11;;;;;;;14.82;4.35;;;;;;;7.29;87.82;102476.47;5037281;28;20025;-66
2022/03/17 06:17:44;;;;;;;12.25;4.30;;;;;;;7.22;88.19;102474.59;5041735;28;20026;-66
2022/03/17 06:20:13;;;;;;;12.32;4.00;;;;;;;7.20;87.39;102477.53;5045657;28;20052;-67
2022/03/17 06:22:40;;;;;;;13.25;4.43;;;;;;;7.20;87.23;102484.88;5043171;28;20068;-67
2022/03/17 06:25:08;;;;;;;14.48;4.57;;;;;;;7.18;87.26;102487.75;5038302;28;20098;-66
2022/03/17 06:27:34;;;;;;;11.90;4.10;;;;;;;7.20;87.07;102499.38;5042656;28;20366;-67
2022/03/17 06:30:04;;;;;;;11.43;4.20;;;;;;;7.16;87.17;102495.28;5042288;28;20095;-67
2022/03/17 06:32:29;;;;;;;13.55;4.22;;;;;;;7.17;87.79;102512.50;5039094;28;20506;-66
2022/03/17 06:34:54;;;;;;;11.55;4.78;;;;;;;7.17;88.06;102515.25;5042168;28;20113;-66
2022/03/17 06:37:20;;;;;;;16.52;4.72;;;;;;;7.14;88.52;102519.16;5041763;28;20104;-67
2022/03/17 06:39:45;;;;;;;14.75;4.78;;;;;;;7.12;88.29;102537.59;5041850;28;20020;-67
2022/03/17 06:42:10;;;;;;;12.30;4.07;;;;;;;7.15;88.08;102542.75;5041689;28;20033;-67
2022/03/17 06:44:36;;;;;;;15.18;4.47;;;;;;;7.18;88.27;102552.47;5042653;28;20356;-67
2022/03/17 06:47:01;;;;;;;13.65;4.43;;;;;;;7.16;87.63;102549.91;5040387;28;20064;-67
2022/03/17 06:49:26;;;;;;;17.20;4.70;;;;;;;7.16;87.81;102551.81;5041856;28;20029;-67
2022/03/17 06:51:51;;;;;;;15.70;4.30;;;;;;;7.16;88.12;102566.31;5039586;28;20021;-67
2022/03/17 06:54:17;;;;;;;13.60;5.05;;;;;;;7.16;87.85;102560.00;5042069;28;20029;-67
2022/03/17 06:56:42;;;;;;;12.35;4.10;;;;;;;7.18;88.13;102569.72;5041739;28;20033;-67
2022/03/17 06:59:07;;;;;;;14.25;4.95;;;;;;;7.19;87.58;102576.91;5041578;28;20408;-67
2022/03/17 07:01:32;;;;;;;16.33;5.03;;;;;;;7.20;87.36;102583.25;5040383;28;20092;-67
2022/03/17 07:03:58;;;;;;;14.07;4.95;;;;;;;7.24;87.36;102588.19;5041981;28;20068;-67
2022/03/17 07:06:23;;;;;;;14.32;4.88;;;;;;;7.30;87.85;102597.63;5041574;28;20524;-67
2022/03/17 07:08:48;;;;;;;14.85;4.63;;;;;;;7.35;86.88;102588.88;5041740;28;20013;-67
2022/03/17 07:11:13;;;;;;;16.33;4.35;;;;;;;7.40;86.73;102600.19;5041027;28;20029;-67
2022/03/17 07:13:39;;;;;;;15.55;4.15;;;;;;;7.41;86.65;102605.50;5042022;28;20036;-67
2022/03/17 07:16:04;;;;;;;13.23;3.55;;;;;;;7.45;86.79;102625.13;5040827;28;20384;-67
2022/03/17 07:18:29;;;;;;;16.65;4.32;;;;;;;7.41;85.88;102621.91;5040895;28;20044;-67
2022/03/17 07:20:57;;;;;;;11.55;2.70;;;;;;;7.41;86.66;102630.09;5042275;28;20100;-67
2022/03/17 07:23:23;;;;;;;11.02;3.13;;;;;;;7.34;87.12;102630.91;5041526;28;20021;-67
2022/03/17 07:25:48;;;;;;;16.40;3.13;;;;;;;7.26;88.54;102638.09;5042862;28;20415;-68
2022/03/17 07:28:15;;;;;;;12.43;3.35;;;;;;;7.23;88.22;102638.41;5042229;28;20104;-67
2022/03/17 07:30:40;;;;;;;15.88;3.83;;;;;;;7.19;88.96;102645.22;5042010;28;20028;-68
2022/03/17 07:33:06;;;;;;;16.88;3.22;;;;;;;7.21;89.48;102651.38;5041925;28;20029;-68
2022/03/17 07:35:32;;;;;;;18.23;3.70;;;;;;;7.24;89.57;102650.19;5042760;28;20632;-68
2022/03/17 07:37:58;;;;;;;13.75;3.33;;;;;;;7.27;89.39;102664.38;5042297;28;20083;-67
2022/03/17 07:40:25;;;;;;;13.93;4.05;;;;;;;7.35;89.18;102663.56;5032344;28;20033;-68
2022/03/17 07:42:50;;;;;;;15.15;3.17;;;;;;;7.43;89.06;102670.94;5040783;28;20033;-67
2022/03/17 07:45:15;;;;;;;14.38;3.25;;;;;;;7.46;87.57;102681.56;5042364;28;20033;-68
2022/03/17 07:47:49;;;;;;;15.27;3.60;;;;;;;7.43;87.15;102687.34;5030458;28;20089;-67
2022/03/17 07:50:15;;;;;;;14.75;3.10;;;;;;;7.41;87.60;102687.50;5021750;28;20032;-68
2022/03/17 07:52:40;;;;;;;13.70;3.30;;;;;;;7.43;87.11;102685.47;5022380;28;20053;-67
2022/03/17 07:55:07;;;;;;;16.17;3.55;;;;;;;7.42;87.74;102691.09;5022827;28;20196;-68
2022/03/17 07:57:32;;;;;;;14.38;3.00;;;;;;;7.39;87.74;102697.75;5020808;28;20018;-67
2022/03/17 07:59:58;;;;;;;14.57;2.78;;;;;;;7.40;88.45;102704.94;5022357;28;20506;-67
2022/03/17 08:02:23;;;;;;;15.75;3.40;;;;;;;7.44;88.02;102711.75;5022360;28;20137;-68
2022/03/17 08:04:50;;;;;;;18.25;4.03;;;;;;;7.51;88.64;102712.84;5028148;28;20389;-68
2022/03/17 08:07:15;;;;;;;16.70;3.17;;;;;;;7.60;88.61;102719.19;5065620;28;20036;-68
2022/03/17 08:09:41;;;;;;;19.85;3.30;;;;;;;7.59;87.06;102725.66;5057655;28;20036;-68
2022/03/17 08:12:06;;;;;;;16.90;3.67;;;;;;;7.60;86.39;102726.53;5046786;28;20032;-68
2022/03/17 08:14:31;;;;;;;21.55;3.63;;;;;;;7.61;86.08;102744.66;5041407;28;20025;-68
2022/03/17 08:16:57;;;;;;;20.60;4.10;;;;;;;7.63;85.97;102738.00;5035335;28;20013;-68
2022/03/17 08:19:22;;;;;;;17.42;3.10;;;;;;;7.65;86.27;102741.41;5044776;28;20377;-68
2022/03/17 08:21:47;;;;;;;19.88;3.50;;;;;;;7.66;84.73;102748.63;5045311;28;20024;-68
2022/03/17 08:24:13;;;;;;;20.05;3.17;;;;;;;7.73;84.47;102757.88;5044684;28;20061;-68
2022/03/17 08:26:39;;;;;;;20.13;3.45;;;;;;;7.81;84.09;102762.53;5038094;28;20430;-67
2022/03/17 08:29:05;;;;;;;16.95;3.72;;;;;;;7.89;83.27;102769.88;5042489;28;20047;-68
2022/03/17 08:31:31;;;;;;;18.15;2.95;;;;;;;8.00;83.31;102769.56;5035420;28;20065;-68
2022/03/17 08:33:59;;;;;;;18.23;3.47;;;;;;;8.07;81.97;102774.22;5036997;28;20041;-68
2022/03/17 08:36:25;;;;;;;16.92;3.92;;;;;;;8.20;81.26;102781.94;5044499;28;20048;-67
2022/03/17 08:38:51;;;;;;;16.02;2.53;;;;;;;8.23;80.69;102783.50;5041118;28;20491;-67
2022/03/17 08:41:17;;;;;;;19.00;3.28;;;;;;;8.20;77.40;102778.34;5038525;28;20017;-67
2022/03/17 08:43:42;;;;;;;13.75;2.63;;;;;;;8.27;79.39;102796.69;5044120;28;20036;-67
2022/03/17 08:51:36;;;;;;;12.45;2.42;;;;;;;8.50;77.46;102805.13;5030293;28;20095;-67
2022/03/17 08:54:01;;;;;;;11.38;2.40;;;;;;;8.45;76.01;102818.47;5044674;28;20071;-68
2022/03/17 08:56:28;;;;;;;14.82;2.38;;;;;;;8.42;74.38;102817.97;5043429;28;20079;-68
2022/03/17 08:58:54;;;;;;;13.27;2.35;;;;;;;8.42;75.28;102815.25;5043338;28;20411;-67
2022/03/17 09:01:19;;;;;;;13.90;2.78;;;;;;;8.44;74.45;102815.91;5035437;28;20028;-68
2022/03/17 09:03:44;;;;;;;14.00;2.47;;;;;;;8.36;73.25;102816.75;5044979;28;20032;-68
2022/03/17 09:06:11;;;;;;;15.15;2.92;;;;;;;8.33;73.70;102826.13;5045341;28;20033;-68
2022/03/17 09:08:36;;;;;;;12.98;2.53;;;;;;;8.31;73.47;102828.19;5039528;28;20090;-68
2022/03/17 09:11:01;;;;;;;17.45;3.15;;;;;;;8.26;72.25;102827.84;5043239;28;20037;-68
2022/03/17 09:13:28;;;;;;;13.52;2.30;;;;;;;8.26;73.20;102844.25;5034165;28;20104;-68
2022/03/17 09:15:54;;;;;;;18.67;3.22;;;;;;;8.30;73.89;102839.28;5027002;28;20654;-69
2022/03/17 09:18:21;;;;;;;11.27;2.20;;;;;;;8.38;75.04;102847.56;5041226;28;20527;-68
2022/03/17 09:20:47;;;;;;;14.05;2.70;;;;;;;8.44;73.56;102844.16;5031424;28;20668;-68
2022/03/17 09:23:12;;;;;;;14.10;3.80;;;;;;;8.51;73.25;102850.66;5044436;28;20024;-66
2022/03/17 09:25:38;;;;;;;18.58;2.50;;;;;;;8.57;73.53;102857.38;5034955;28;20729;-68
2022/03/17 09:28:04;;;;;;;15.52;2.63;;;;;;;8.62;73.03;102862.31;5038513;28;20162;-68
2022/03/17 09:30:29;;;;;;;11.30;2.30;;;;;;;8.65;72.82;102870.22;5029456;28;20726;-68
2022/03/17 09:32:55;;;;;;;14.75;3.17;;;;;;;8.70;71.74;102863.19;5037064;28;20029;-68
2022/03/17 09:35:22;;;;;;;12.32;3.15;;;;;;;8.69;70.45;102872.44;5043193;28;20116;-68
2022/03/17 09:37:48;;;;;;;12.70;2.28;;;;;;;8.69;71.20;102879.81;5045432;28;20412;-68
2022/03/17 09:40:13;;;;;;;12.93;2.45;;;;;;;8.68;71.24;102876.22;5036072;28;20095;-68
2022/03/17 09:42:39;;;;;;;16.63;3.33;;;;;;;8.73;70.95;102887.53;5041558;28;20024;-68
2022/03/17 09:45:07;;;;;;;12.70;2.83;;;;;;;8.73;70.92;102889.41;5044869;28;20472;-68
2022/03/17 09:47:35;;;;;;;12.77;2.92;;;;;;;8.82;70.21;102894.75;5038075;28;20075;-67
2022/03/17 09:50:03;;;;;;;11.15;2.45;;;;;;;8.82;69.69;102886.53;5042075;28;20100;-68
2022/03/17 09:52:29;;;;;;;14.17;2.67;;;;;;;8.80;70.33;102899.50;5035009;28;20318;-67
2022/03/17 09:54:54;;;;;;;17.20;3.10;;;;;;;8.82;70.71;102908.44;5044649;28;20021;-68
2022/03/17 09:57:20;;;;;;;11.98;2.80;;;;;;;8.87;68.34;102901.56;5044992;28;20023;-67
2022/03/17 09:59:56;;;;;;;15.48;2.50;;;;;;;8.92;69.08;102910.13;5044744;28;20049;-68
2022/03/17 10:02:22;;;;;;;13.77;2.47;;;;;;;8.89;68.40;102921.44;5043019;28;20083;-68
2022/03/17 10:04:48;;;;;;;11.40;2.30;;;;;;;8.89;68.66;102921.44;5044939;28;20029;-67
2022/03/17 10:07:17;;;;;;;13.10;2.92;;;;;;;8.90;69.76;102932.25;5039462;28;20028;-69
2022/03/17 10:09:43;;;;;;;12.30;2.38;;;;;;;9.00;69.22;102930.19;5026334;28;20038;-67
2022/03/17 10:12:10;;;;;;;12.77;2.28;;;;;;;9.02;68.12;102940.97;5030620;28;20021;-65
2022/03/17 10:14:37;;;;;;;14.57;3.27;;;;;;;9.07;67.32;102944.97;5045240;28;20033;-67
2022/03/17 10:17:09;;;;;;;10.35;2.72;;;;;;;9.04;66.34;102942.53;5039451;28;20037;-68
2022/03/17 10:19:34;;;;;;;12.90;3.50;;;;;;;9.10;67.28;102952.81;5039185;28;20361;-68
2022/03/17 10:22:08;;;;;;;10.10;2.17;;;;;;;9.23;66.93;102966.03;5044321;28;20029;-68
2022/03/17 10:24:36;;;;;;;11.15;2.20;;;;;;;9.24;66.41;102966.91;5045287;28;20743;-67
2022/03/17 10:27:03;;;;;;;14.85;2.40;;;;;;;9.22;66.78;102971.69;5038113;28;20387;-68
2022/03/17 10:29:29;;;;;;;9.35;2.15;;;;;;;9.22;66.96;102978.00;5043269;28;20032;-68
2022/03/17 10:32:01;;;;;;;8.45;2.28;;;;;;;9.22;66.49;102990.88;5036833;28;20083;-68
2022/03/17 10:34:29;;;;;;;10.10;3.60;;;;;;;9.29;66.77;102995.53;5035888;28;20040;-68
2022/03/17 10:37:12;;;;;;;13.48;2.67;;;;;;;9.33;66.62;102994.16;5041128;28;20021;-68
2022/03/17 10:39:44;;;;;;;12.18;2.90;;;;;;;9.39;66.24;102991.75;5038392;28;20484;-68
2022/03/17 10:42:18;;;;;;;10.00;2.50;;;;;;;9.36;65.68;102990.22;5043678;28;20371;-67
2022/03/17 10:44:52;;;;;;;12.88;2.65;;;;;;;9.29;66.56;103000.16;5042752;28;20474;-67
2022/03/17 10:47:28;;;;;;;11.00;2.50;;;;;;;9.15;65.32;103009.88;5041802;28;20032;-68
2022/03/17 10:50:04;;;;;;;13.05;2.80;;;;;;;9.03;65.91;103008.50;5036086;28;20329;-67
2022/03/17 10:52:57;;;;;;;10.27;2.75;;;;;;;9.19;66.36;103011.28;5022900;28;20072;-68
2022/03/17 10:55:28;;;;;;;19.95;7.30;;;;;;;9.35;64.44;103015.94;5023229;28;20048;-68
2022/03/17 10:57:58;;;;;;;20.77;9.90;;;;;;;9.65;64.35;103011.66;5023336;28;20036;-68
2022/03/17 11:00:26;;;;;;;11.85;4.03;;;;;;;10.00;62.32;103013.19;5022603;28;20392;-68
2022/03/17 11:02:57;;;;;;;8.98;3.35;;;;;;;10.31;61.62;103017.94;5021543;28;20055;-68
2022/03/17 11:05:23;;;;;;;11.32;3.00;;;;;;;10.55;60.32;103022.50;5036611;28;20040;-69
2022/03/17 11:07:48;;;;;;;15.65;2.90;;;;;;;10.68;59.04;103025.53;5039084;28;20395;-69
2022/03/17 11:10:16;;;;;;;15.10;3.03;;;;;;;10.96;59.63;103028.69;5038747;28;20115;-70
2022/03/17 11:12:44;;;;;;;8.43;2.50;;;;;;;11.08;59.13;103026.38;5032379;28;20391;-69
2022/03/17 11:15:10;;;;;;;8.80;2.58;;;;;;;11.17;58.62;103026.16;5038768;28;20043;-69
2022/03/17 11:17:47;;;;;;;9.30;2.80;;;;;;;11.14;59.71;103042.16;5043803;28;20432;-69
2022/03/17 11:20:18;;;;;;;13.77;3.88;;;;;;;11.22;59.56;103042.09;5035610;28;20111;-68
2022/03/17 11:22:50;;;;;;;10.63;3.00;;;;;;;11.12;58.54;103057.97;5033987;28;20079;-69
2022/03/17 11:25:26;;;;;;;9.98;3.53;;;;;;;10.94;60.54;103058.22;5040925;28;20349;-69
2022/03/17 11:27:58;;;;;;;12.10;2.92;;;;;;;10.78;59.28;103059.16;5042634;28;20033;-69
2022/03/17 11:30:29;;;;;;;14.88;3.75;;;;;;;10.82;60.85;103060.53;5039655;28;20060;-69
2022/03/17 11:32:58;;;;;;;10.73;3.38;;;;;;;10.98;60.29;103059.59;5040460;28;20025;-70